createdAt,value
2023-09-06T00:02:02.670Z,16.30
2023-09-06T00:04:31.649Z,16.30
2023-09-06T00:07:03.209Z,16.30
2023-09-06T00:09:31.715Z,16.30
2023-09-06T00:12:00.239Z,16.20
2023-09-06T00:14:30.765Z,16.20
2023-09-06T00:16:59.436Z,16.20
2023-09-06T00:19:27.816Z,16.10
2023-09-06T00:21:56.336Z,16.10
2023-09-06T00:24:26.617Z,16.00
2023-09-06T00:26:56.022Z,16.00
2023-09-06T00:29:24.623Z,15.90
2023-09-06T00:31:53.081Z,15.90
2023-09-06T00:34:21.631Z,15.80
2023-09-06T00:36:50.088Z,15.80
2023-09-06T00:39:19.127Z,15.80
2023-09-06T00:41:49.013Z,15.80
2023-09-06T00:44:17.915Z,15.80
2023-09-06T00:46:46.498Z,15.70
2023-09-06T00:49:15.122Z,15.70
2023-09-06T00:51:44.538Z,15.70
2023-09-06T00:54:12.929Z,15.70
2023-09-06T00:56:42.098Z,15.70
2023-09-06T00:59:14.027Z,15.60
2023-09-06T01:01:42.738Z,15.60
2023-09-06T01:04:11.274Z,15.50
2023-09-06T01:06:42.988Z,15.50
2023-09-06T01:09:12.287Z,15.50
2023-09-06T01:11:41.830Z,15.50
2023-09-06T01:14:11.693Z,15.40
2023-09-06T01:16:44.227Z,15.40
2023-09-06T01:19:15.037Z,15.30
2023-09-06T01:21:52.048Z,15.40
2023-09-06T01:24:22.883Z,15.40
2023-09-06T01:26:51.840Z,15.30
2023-09-06T01:29:20.606Z,15.30
2023-09-06T01:31:49.180Z,15.40
2023-09-06T01:34:17.729Z,15.40
2023-09-06T01:36:46.572Z,15.40
2023-09-06T01:39:15.533Z,15.30
2023-09-06T01:41:45.302Z,15.30
2023-09-06T01:44:13.729Z,15.30
2023-09-06T01:46:42.644Z,15.20
2023-09-06T01:49:11.244Z,15.20
2023-09-06T01:51:39.819Z,15.10
2023-09-06T01:54:11.447Z,15.10
2023-09-06T01:56:39.919Z,15.10
2023-09-06T01:59:09.799Z,15.10
2023-09-06T02:01:38.571Z,15.10
2023-09-06T02:04:07.581Z,15.00
2023-09-06T02:06:36.055Z,15.00
2023-09-06T02:09:05.054Z,15.00
2023-09-06T02:11:35.473Z,15.00
2023-09-06T02:14:03.935Z,14.90
2023-09-06T02:16:34.118Z,14.90
2023-09-06T02:19:02.896Z,14.90
2023-09-06T02:21:31.318Z,14.80
2023-09-06T02:23:59.863Z,14.80
2023-09-06T02:26:30.846Z,14.80
2023-09-06T02:28:59.815Z,14.80
2023-09-06T02:31:28.536Z,14.80
2023-09-06T02:33:58.731Z,14.80
2023-09-06T02:36:27.326Z,14.80
2023-09-06T02:38:56.444Z,14.80
2023-09-06T02:41:25.422Z,14.70
2023-09-06T02:43:54.146Z,14.70
2023-09-06T02:46:23.232Z,14.70
2023-09-06T02:48:52.183Z,14.70
2023-09-06T02:51:22.525Z,14.70
2023-09-06T02:53:51.137Z,14.70
2023-09-06T02:56:20.333Z,14.60
2023-09-06T02:58:49.454Z,14.50
2023-09-06T03:01:22.132Z,14.50
2023-09-06T03:03:53.192Z,14.50
2023-09-06T03:06:34.331Z,14.50
2023-09-06T03:09:07.840Z,14.50
2023-09-06T03:11:36.917Z,14.40
2023-09-06T03:14:07.008Z,14.40
2023-09-06T03:16:40.340Z,14.40
2023-09-06T03:19:13.392Z,14.40
2023-09-06T03:21:43.677Z,14.40
2023-09-06T03:24:14.532Z,14.40
2023-09-06T03:26:45.546Z,14.40
2023-09-06T03:29:16.800Z,14.40
2023-09-06T03:31:45.870Z,14.40
2023-09-06T03:34:17.047Z,14.40
2023-09-06T03:36:53.055Z,14.30
2023-09-06T03:39:21.622Z,14.30
2023-09-06T03:41:50.686Z,14.20
2023-09-06T03:44:19.360Z,14.20
2023-09-06T03:46:50.232Z,14.20
2023-09-06T03:49:20.276Z,14.20
2023-09-06T03:51:50.368Z,14.20
2023-09-06T03:54:19.938Z,14.20
2023-09-06T03:56:48.681Z,14.20
2023-09-06T03:59:18.166Z,14.20
2023-09-06T04:01:47.487Z,14.20
2023-09-06T04:04:16.167Z,14.10
2023-09-06T04:06:44.974Z,14.10
2023-09-06T04:09:15.542Z,14.10
2023-09-06T04:11:43.940Z,14.00
2023-09-06T04:14:12.861Z,14.00
2023-09-06T04:16:41.580Z,14.10
2023-09-06T04:19:10.126Z,14.10
2023-09-06T04:21:41.783Z,14.10
2023-09-06T04:24:10.462Z,14.00
2023-09-06T04:26:40.486Z,14.00
2023-09-06T04:29:10.144Z,14.00
2023-09-06T04:31:42.772Z,14.00
2023-09-06T04:34:12.970Z,14.00
2023-09-06T04:36:41.434Z,14.00
2023-09-06T04:39:10.286Z,14.00
2023-09-06T04:41:40.252Z,13.90
2023-09-06T04:44:08.885Z,13.90
2023-09-06T04:46:37.429Z,13.90
2023-09-06T04:49:06.081Z,13.90
2023-09-06T04:51:34.879Z,13.90
2023-09-06T04:54:04.079Z,14.00
2023-09-06T04:56:32.916Z,14.00
2023-09-06T04:59:02.891Z,14.00
2023-09-06T05:01:34.461Z,14.00
2023-09-06T05:04:03.231Z,14.00
2023-09-06T05:06:32.015Z,14.00
2023-09-06T05:09:00.548Z,14.00
2023-09-06T05:11:29.133Z,14.00
2023-09-06T05:13:57.664Z,14.00
2023-09-06T05:16:30.022Z,14.00
2023-09-06T05:18:58.506Z,14.00
2023-09-06T05:21:27.180Z,14.00
2023-09-06T05:23:55.875Z,14.00
2023-09-06T05:26:24.939Z,14.00
2023-09-06T05:28:56.021Z,14.00
2023-09-06T05:31:24.835Z,14.10
2023-09-06T05:33:54.860Z,14.10
2023-09-06T05:36:26.078Z,14.10
2023-09-06T05:38:58.382Z,14.10
2023-09-06T05:41:27.088Z,14.10
2023-09-06T05:43:56.245Z,14.10
2023-09-06T05:46:33.148Z,14.20
2023-09-06T05:49:04.438Z,14.20
2023-09-06T05:51:33.325Z,14.30
2023-09-06T05:54:02.077Z,14.30
2023-09-06T05:56:31.201Z,14.40
2023-09-06T05:59:00.807Z,14.50
2023-09-06T06:01:30.327Z,14.60
2023-09-06T06:03:59.662Z,14.60
2023-09-06T06:06:30.111Z,14.70
2023-09-06T06:08:58.778Z,14.80
2023-09-06T06:11:28.475Z,14.90
2023-09-06T06:14:09.683Z,15.00
2023-09-06T06:16:44.808Z,15.20
2023-09-06T06:19:15.337Z,15.30
2023-09-06T06:21:46.882Z,15.40
2023-09-06T06:24:15.966Z,15.50
2023-09-06T06:26:48.139Z,15.60
2023-09-06T06:29:20.907Z,15.70
2023-09-06T06:31:50.003Z,15.80
2023-09-06T06:34:19.802Z,16.00
2023-09-06T06:36:50.141Z,16.10
2023-09-06T06:39:19.876Z,16.20
2023-09-06T06:41:57.238Z,16.40
2023-09-06T06:44:25.801Z,16.50
2023-09-06T06:46:54.655Z,16.60
2023-09-06T06:49:24.556Z,16.80
2023-09-06T06:51:54.634Z,16.90
2023-09-06T06:54:28.238Z,17.00
2023-09-06T06:56:57.003Z,17.20
2023-09-06T06:59:27.142Z,17.40
2023-09-06T07:02:00.070Z,17.60
2023-09-06T07:04:28.959Z,17.70
2023-09-06T07:06:59.249Z,17.90
2023-09-06T07:09:28.468Z,18.00
2023-09-06T07:11:57.481Z,18.20
2023-09-06T07:14:26.212Z,18.40
2023-09-06T07:16:55.617Z,18.50
2023-09-06T07:19:24.233Z,18.60
2023-09-06T07:21:52.950Z,18.80
2023-09-06T07:24:22.879Z,18.90
2023-09-06T07:26:52.342Z,19.00
2023-09-06T07:29:21.627Z,19.20
2023-09-06T07:32:00.169Z,19.30
2023-09-06T07:34:29.684Z,19.60
2023-09-06T07:36:58.655Z,19.80
2023-09-06T07:39:29.490Z,19.90
2023-09-06T07:41:58.425Z,20.10
2023-09-06T07:44:30.923Z,20.30
2023-09-06T07:47:00.274Z,20.40
2023-09-06T07:49:31.794Z,20.50
2023-09-06T07:52:06.578Z,20.60
2023-09-06T07:54:37.854Z,20.70
2023-09-06T07:57:07.172Z,20.80
2023-09-06T07:59:36.116Z,20.90
2023-09-06T08:02:06.674Z,21.00
2023-09-06T08:04:37.283Z,21.20
2023-09-06T08:07:06.570Z,21.20
2023-09-06T08:09:44.564Z,21.30
2023-09-06T08:12:14.331Z,21.40
2023-09-06T08:14:43.782Z,21.60
2023-09-06T08:17:17.070Z,21.80
2023-09-06T08:19:49.994Z,21.80
2023-09-06T08:22:29.368Z,21.90
2023-09-06T08:25:10.756Z,21.90
2023-09-06T08:27:39.673Z,22.00
2023-09-06T08:30:12.200Z,22.20
2023-09-06T08:32:42.081Z,22.30
2023-09-06T08:35:13.335Z,22.40
2023-09-06T08:37:51.502Z,22.50
2023-09-06T08:40:23.600Z,22.50
2023-09-06T08:42:54.763Z,22.60
2023-09-06T08:45:25.040Z,22.70
2023-09-06T08:47:54.926Z,22.70
2023-09-06T08:50:24.812Z,22.90
2023-09-06T08:53:02.628Z,22.90
2023-09-06T08:55:37.866Z,23.00
2023-09-06T08:58:10.028Z,23.20
2023-09-06T09:00:45.791Z,23.20
2023-09-06T09:03:15.206Z,23.30
2023-09-06T09:05:44.500Z,23.40
2023-09-06T09:08:18.353Z,23.40
2023-09-06T09:10:49.064Z,23.50
2023-09-06T09:13:18.158Z,23.50
2023-09-06T09:15:51.776Z,23.60
2023-09-06T09:18:20.929Z,23.60
2023-09-06T09:20:53.587Z,23.60
2023-09-06T09:23:23.646Z,23.60
2023-09-06T09:26:02.996Z,23.60
2023-09-06T09:28:36.241Z,23.60
2023-09-06T09:31:06.820Z,23.70
2023-09-06T09:33:37.286Z,23.90
2023-09-06T09:36:07.603Z,23.90
2023-09-06T09:38:41.349Z,23.90
2023-09-06T09:41:14.690Z,23.90
2023-09-06T09:43:48.550Z,24.00
2023-09-06T09:46:30.893Z,24.20
2023-09-06T09:49:12.497Z,24.20
2023-09-06T09:51:44.954Z,24.30
2023-09-06T09:54:21.066Z,24.40
2023-09-06T09:57:05.931Z,24.40
2023-09-06T09:59:36.290Z,24.60
2023-09-06T10:02:13.757Z,24.60
2023-09-06T10:04:47.535Z,24.60
2023-09-06T10:07:25.571Z,24.60
2023-09-06T10:10:08.590Z,24.70
2023-09-06T10:12:41.258Z,24.80
2023-09-06T10:15:22.363Z,24.80
2023-09-06T10:17:53.187Z,24.80
2023-09-06T10:20:25.677Z,24.80
2023-09-06T10:23:20.596Z,24.80
2023-09-06T10:25:53.554Z,24.90
2023-09-06T10:28:26.793Z,25.00
2023-09-06T10:31:09.446Z,25.20
2023-09-06T10:33:59.942Z,25.30
2023-09-06T10:36:34.421Z,25.40
2023-09-06T10:39:17.845Z,25.50
2023-09-06T10:42:35.520Z,25.60
2023-09-06T10:45:21.526Z,25.80
2023-09-06T10:47:52.789Z,25.90
2023-09-06T10:50:27.369Z,25.90
2023-09-06T10:53:02.078Z,25.80
2023-09-06T10:55:48.172Z,25.90
2023-09-06T10:58:18.995Z,25.90
2023-09-06T11:01:19.491Z,26.00
2023-09-06T11:03:51.429Z,26.00
2023-09-06T11:06:22.205Z,26.00
2023-09-06T11:09:07.421Z,26.00
2023-09-06T11:11:40.053Z,26.00
2023-09-06T11:14:10.681Z,26.10
2023-09-06T11:16:54.533Z,26.10
2023-09-06T11:19:35.361Z,26.30
2023-09-06T11:22:15.742Z,26.30
2023-09-06T11:24:47.259Z,26.30
2023-09-06T11:27:34.006Z,26.50
2023-09-06T11:30:19.592Z,26.50
2023-09-06T11:32:55.090Z,26.40
2023-09-06T11:35:36.144Z,26.40
2023-09-06T11:38:12.767Z,26.50
2023-09-06T11:40:54.077Z,26.60
2023-09-06T11:43:31.179Z,26.60
2023-09-06T11:46:06.069Z,26.60
2023-09-06T11:48:37.847Z,26.70
2023-09-06T11:51:10.330Z,26.60
2023-09-06T11:54:02.570Z,26.60
2023-09-06T11:56:35.664Z,26.60
2023-09-06T11:59:11.951Z,26.70
2023-09-06T12:01:42.486Z,26.70
2023-09-06T12:04:18.578Z,26.70
2023-09-06T12:06:54.078Z,26.80
2023-09-06T12:09:27.149Z,26.80
2023-09-06T12:12:07.428Z,26.90
2023-09-06T12:14:41.609Z,26.90
2023-09-06T12:17:14.264Z,27.00
2023-09-06T12:19:46.373Z,27.00
2023-09-06T12:22:19.896Z,26.90
2023-09-06T12:24:58.368Z,26.90
2023-09-06T12:27:58.356Z,27.00
2023-09-06T12:30:29.141Z,27.10
2023-09-06T12:33:02.818Z,27.20
2023-09-06T12:35:40.156Z,27.30
2023-09-06T12:38:15.410Z,27.30
2023-09-06T12:40:49.682Z,27.30
2023-09-06T12:43:27.520Z,27.30
2023-09-06T12:46:08.226Z,27.40
2023-09-06T12:48:44.125Z,27.40
2023-09-06T12:51:18.723Z,27.40
2023-09-06T12:53:57.060Z,27.50
2023-09-06T12:56:44.350Z,27.50
2023-09-06T12:59:17.522Z,27.50
2023-09-06T13:01:47.420Z,27.40
2023-09-06T13:04:19.223Z,27.50
2023-09-06T13:06:56.192Z,27.60
2023-09-06T13:09:29.608Z,27.60
2023-09-06T13:12:09.230Z,27.60
2023-09-06T13:14:40.530Z,27.60
2023-09-06T13:17:18.103Z,27.60
2023-09-06T13:19:51.087Z,27.50
2023-09-06T13:22:39.342Z,27.60
2023-09-06T13:25:21.246Z,27.60
2023-09-06T13:27:56.875Z,27.70
2023-09-06T13:30:37.630Z,27.70
2023-09-06T13:33:11.146Z,27.70
2023-09-06T13:35:40.991Z,27.70
2023-09-06T13:38:32.812Z,27.70
2023-09-06T13:41:10.791Z,27.70
2023-09-06T13:44:05.086Z,27.70
2023-09-06T13:46:46.471Z,27.80
2023-09-06T13:49:16.461Z,27.80
2023-09-06T13:51:48.537Z,27.80
2023-09-06T13:54:22.285Z,27.80
2023-09-06T13:56:55.029Z,27.80
2023-09-06T13:59:29.761Z,27.90
2023-09-06T14:02:09.528Z,27.90
2023-09-06T14:04:50.160Z,27.90
2023-09-06T14:07:24.160Z,27.80
2023-09-06T14:10:12.117Z,27.80
2023-09-06T14:12:55.404Z,27.90
2023-09-06T14:15:39.022Z,27.80
2023-09-06T14:18:16.000Z,27.80
2023-09-06T14:20:59.250Z,27.80
2023-09-06T14:23:34.891Z,27.80
2023-09-06T14:26:10.976Z,27.80
2023-09-06T14:28:50.699Z,27.80
2023-09-06T14:31:30.245Z,27.80
2023-09-06T14:34:04.335Z,27.80
2023-09-06T14:36:36.829Z,27.80
2023-09-06T14:39:10.576Z,27.80
2023-09-06T14:41:59.433Z,27.70
2023-09-06T14:44:28.532Z,27.70
2023-09-06T14:46:58.576Z,27.70
2023-09-06T14:49:27.848Z,27.70
2023-09-06T14:52:00.560Z,27.70
2023-09-06T14:54:32.023Z,27.70
2023-09-06T14:57:04.135Z,27.70
2023-09-06T14:59:36.109Z,27.70
2023-09-06T15:02:05.303Z,27.70
2023-09-06T15:04:37.658Z,27.70
2023-09-06T15:07:10.764Z,27.70
2023-09-06T15:09:42.495Z,27.70
2023-09-06T15:12:13.382Z,27.70
2023-09-06T15:14:48.338Z,27.70
2023-09-06T15:17:18.712Z,27.70
2023-09-06T15:19:47.923Z,27.60
2023-09-06T15:22:32.915Z,27.70
2023-09-06T15:25:09.869Z,27.60
2023-09-06T15:27:42.004Z,27.60
2023-09-06T15:30:15.264Z,27.60
2023-09-06T15:32:46.328Z,27.50
2023-09-06T15:35:20.332Z,27.60
2023-09-06T15:38:12.270Z,27.60
2023-09-06T15:41:03.614Z,27.60
2023-09-06T15:43:37.044Z,27.60
2023-09-06T15:46:11.013Z,27.70
2023-09-06T15:48:44.172Z,27.70
2023-09-06T15:51:14.106Z,27.60
2023-09-06T15:53:48.757Z,27.60
2023-09-06T15:56:18.935Z,27.60
2023-09-06T15:58:50.773Z,27.60
2023-09-06T16:01:19.974Z,27.50
2023-09-06T16:03:57.766Z,27.50
2023-09-06T16:06:29.075Z,27.50
2023-09-06T16:09:02.784Z,27.40
2023-09-06T16:11:32.629Z,27.40
2023-09-06T16:14:05.178Z,27.40
2023-09-06T16:16:34.526Z,27.30
2023-09-06T16:19:06.760Z,27.20
2023-09-06T16:21:35.586Z,27.20
2023-09-06T16:24:05.796Z,27.10
2023-09-06T16:26:36.055Z,27.10
2023-09-06T16:29:11.992Z,27.10
2023-09-06T16:31:42.372Z,27.10
2023-09-06T16:34:12.673Z,27.00
2023-09-06T16:36:43.357Z,26.90
2023-09-06T16:39:15.603Z,26.90
2023-09-06T16:41:46.965Z,26.80
2023-09-06T16:44:17.973Z,26.70
2023-09-06T16:46:46.951Z,26.60
2023-09-06T16:49:16.114Z,26.40
2023-09-06T16:51:48.103Z,26.30
2023-09-06T16:54:17.952Z,26.20
2023-09-06T16:57:03.196Z,26.00
2023-09-06T16:59:34.387Z,26.00
2023-09-06T17:02:06.116Z,25.90
2023-09-06T17:04:34.759Z,25.80
2023-09-06T17:07:06.894Z,25.70
2023-09-06T17:09:36.856Z,25.70
2023-09-06T17:12:06.665Z,25.70
2023-09-06T17:14:45.698Z,25.60
2023-09-06T17:17:21.087Z,25.60
2023-09-06T17:19:50.788Z,25.60
2023-09-06T17:22:20.093Z,25.50
2023-09-06T17:24:54.041Z,25.40
2023-09-06T17:27:32.872Z,25.30
2023-09-06T17:30:12.387Z,25.20
2023-09-06T17:33:06.860Z,25.20
2023-09-06T17:35:46.666Z,25.10
2023-09-06T17:38:21.314Z,25.10
2023-09-06T17:41:00.319Z,25.00
2023-09-06T17:43:32.544Z,24.90
2023-09-06T17:46:06.818Z,24.80
2023-09-06T17:48:37.227Z,24.70
2023-09-06T17:51:10.556Z,24.50
2023-09-06T17:53:45.864Z,24.40
2023-09-06T17:56:19.775Z,24.30
2023-09-06T17:58:56.613Z,24.10
2023-09-06T18:01:31.892Z,24.00
2023-09-06T18:04:06.139Z,23.90
2023-09-06T18:06:35.579Z,23.80
2023-09-06T18:09:09.287Z,23.70
2023-09-06T18:11:40.268Z,23.60
2023-09-06T18:14:14.138Z,23.50
2023-09-06T18:16:49.121Z,23.40
2023-09-06T18:19:22.887Z,23.30
2023-09-06T18:21:58.955Z,23.20
2023-09-06T18:24:33.756Z,23.00
2023-09-06T18:27:08.543Z,22.90
2023-09-06T18:29:40.606Z,22.90
2023-09-06T18:32:16.324Z,22.80
2023-09-06T18:34:45.473Z,22.60
2023-09-06T18:37:20.885Z,22.60
2023-09-06T18:39:51.298Z,22.50
2023-09-06T18:42:30.581Z,22.40
2023-09-06T18:45:09.041Z,22.30
2023-09-06T18:47:45.799Z,22.20
2023-09-06T18:50:22.268Z,22.10
2023-09-06T18:52:55.101Z,22.00
2023-09-06T18:55:27.871Z,21.90
2023-09-06T18:58:05.979Z,21.80
2023-09-06T19:00:38.468Z,21.80
2023-09-06T19:03:23.170Z,21.70
2023-09-06T19:05:58.392Z,21.60
2023-09-06T19:08:27.495Z,21.50
2023-09-06T19:11:03.513Z,21.50
2023-09-06T19:13:33.077Z,21.40
2023-09-06T19:16:09.218Z,21.30
2023-09-06T19:18:45.347Z,21.30
2023-09-06T19:21:25.704Z,21.20
2023-09-06T19:23:54.826Z,21.20
2023-09-06T19:26:24.029Z,21.10
2023-09-06T19:28:54.459Z,21.10
2023-09-06T19:31:24.092Z,21.00
2023-09-06T19:33:55.207Z,21.00
2023-09-06T19:36:24.343Z,20.90
2023-09-06T19:38:54.846Z,20.90
2023-09-06T19:41:24.354Z,20.80
2023-09-06T19:43:55.825Z,20.80
2023-09-06T19:46:26.917Z,20.80
2023-09-06T19:49:06.322Z,20.80
2023-09-06T19:51:36.386Z,20.70
2023-09-06T19:54:10.105Z,20.70
2023-09-06T19:56:41.557Z,20.60
2023-09-06T19:59:11.097Z,20.50
2023-09-06T20:01:46.164Z,20.50
2023-09-06T20:04:19.680Z,20.40
2023-09-06T20:06:52.644Z,20.40
2023-09-06T20:09:24.008Z,20.40
2023-09-06T20:11:52.673Z,20.30
2023-09-06T20:14:31.390Z,20.30
2023-09-06T20:17:00.395Z,20.20
2023-09-06T20:19:32.740Z,20.10
2023-09-06T20:22:01.636Z,20.10
2023-09-06T20:24:31.179Z,20.00
2023-09-06T20:27:00.531Z,20.00
2023-09-06T20:29:40.422Z,19.90
2023-09-06T20:32:20.006Z,19.90
2023-09-06T20:34:50.262Z,19.80
2023-09-06T20:37:19.742Z,19.70
2023-09-06T20:39:48.740Z,19.70
2023-09-06T20:42:23.948Z,19.70
2023-09-06T20:44:58.116Z,19.70
2023-09-06T20:47:30.521Z,19.60
2023-09-06T20:50:02.757Z,19.60
2023-09-06T20:52:32.335Z,19.50
2023-09-06T20:55:01.670Z,19.50
2023-09-06T20:57:31.970Z,19.50
2023-09-06T21:00:01.104Z,19.50
2023-09-06T21:02:30.394Z,19.40
2023-09-06T21:05:00.861Z,19.30
2023-09-06T21:07:29.587Z,19.30
2023-09-06T21:10:06.307Z,19.20
2023-09-06T21:12:36.501Z,19.20
2023-09-06T21:15:08.241Z,19.10
2023-09-06T21:17:36.984Z,19.00
2023-09-06T21:20:09.238Z,18.90
2023-09-06T21:22:37.818Z,18.90
2023-09-06T21:25:07.210Z,18.80
2023-09-06T21:27:36.795Z,18.80
2023-09-06T21:30:07.845Z,18.80
2023-09-06T21:32:38.307Z,18.80
2023-09-06T21:35:12.023Z,18.70
2023-09-06T21:37:41.666Z,18.70
2023-09-06T21:40:11.241Z,18.60
2023-09-06T21:42:40.108Z,18.60
2023-09-06T21:45:10.758Z,18.50
2023-09-06T21:47:39.275Z,18.50
2023-09-06T21:50:11.041Z,18.50
2023-09-06T21:52:40.226Z,18.50
2023-09-06T21:55:11.051Z,18.40
2023-09-06T21:57:40.026Z,18.40
2023-09-06T22:00:12.533Z,18.40
2023-09-06T22:02:41.150Z,18.30
2023-09-06T22:05:11.526Z,18.30
2023-09-06T22:07:40.117Z,18.20
2023-09-06T22:10:09.382Z,18.20
2023-09-06T22:12:37.840Z,18.10
2023-09-06T22:15:09.811Z,18.10
2023-09-06T22:17:38.180Z,18.10
2023-09-06T22:20:07.930Z,18.10
2023-09-06T22:22:37.945Z,18.00
2023-09-06T22:25:08.263Z,18.00
2023-09-06T22:27:37.032Z,17.90
2023-09-06T22:30:06.369Z,17.90
2023-09-06T22:32:34.819Z,17.80
2023-09-06T22:35:03.630Z,17.80
2023-09-06T22:37:36.205Z,17.80
2023-09-06T22:40:07.394Z,17.70
2023-09-06T22:42:35.830Z,17.70
2023-09-06T22:45:07.711Z,17.60
2023-09-06T22:47:36.384Z,17.60
2023-09-06T22:50:06.734Z,17.60
2023-09-06T22:52:35.242Z,17.70
2023-09-06T22:55:05.858Z,17.60
2023-09-06T22:57:34.344Z,17.60
2023-09-06T23:00:02.828Z,17.50
2023-09-06T23:02:31.662Z,17.50
2023-09-06T23:05:00.567Z,17.40
2023-09-06T23:07:29.352Z,17.40
2023-09-06T23:09:57.948Z,17.40
2023-09-06T23:12:28.525Z,17.30
2023-09-06T23:14:57.132Z,17.30
2023-09-06T23:17:33.107Z,17.30
2023-09-06T23:20:12.634Z,17.20
2023-09-06T23:22:45.566Z,17.20
2023-09-06T23:25:15.965Z,17.10
2023-09-06T23:27:48.033Z,17.10
2023-09-06T23:30:19.234Z,17.10
2023-09-06T23:32:51.879Z,17.10
2023-09-06T23:35:22.810Z,17.10
2023-09-06T23:37:52.709Z,17.00
2023-09-06T23:40:23.721Z,17.00
2023-09-06T23:42:54.817Z,17.00
2023-09-06T23:45:25.245Z,17.00
2023-09-06T23:47:57.762Z,17.00
2023-09-06T23:50:29.695Z,17.00
2023-09-06T23:52:58.151Z,17.00
2023-09-06T23:55:28.404Z,16.90
2023-09-06T23:57:58.309Z,16.90
